GZA weather

CLOSED Yasser Arafat International Airport
Rafah, Rafah Governorate, Palestinian Territory

Public forecast

Using degrees Celsius for public forecast. Weather courtesy of forecast.io.

Closest aviation weather report (METAR) to Yasser Arafat International Airport

Report is more than 6 hours old.

Closest report is El Arish International Airport, 24.9 nm (46.1 km) WSW. Retrieved 2020/01/12 10:54 UTC (11 days ago):

HEAR 121054Z VRB02KT 9999 BKN025 19/13 Q1025 NOSIG

Closest aviation forecast (TAF) to Yasser Arafat International Airport

Forecast is more than 12 hours old.

Closest forecast is El Gora Airport, 13.1 nm (24.2 km) SW. Retrieved 2020-01-22 00:00 UTC (1 day ago):

TAF HEGR 212300Z 2200/2306 30008KT 9999 SCT020 TEMPO 2200/2206 VRB03KT 3000 BR